sensor_id;sensor_type;location;lat;lon;timestamp;temperature;humidity
612;DHT22;293;53.888;11.464;2022-09-06T00:00:53;15.70;97.80
612;DHT22;293;53.888;11.464;2022-09-06T00:03:20;15.80;97.80
612;DHT22;293;53.888;11.464;2022-09-06T00:05:47;15.80;97.80
612;DHT22;293;53.888;11.464;2022-09-06T00:08:16;15.80;97.80
612;DHT22;293;53.888;11.464;2022-09-06T00:10:43;15.70;97.80
612;DHT22;293;53.888;11.464;2022-09-06T00:13:10;15.70;97.80
612;DHT22;293;53.888;11.464;2022-09-06T00:15:38;15.70;97.70
612;DHT22;293;53.888;11.464;2022-09-06T00:18:06;15.80;97.60
612;DHT22;293;53.888;11.464;2022-09-06T00:20:33;15.70;97.60
612;DHT22;293;53.888;11.464;2022-09-06T00:23:03;15.80;97.60
612;DHT22;293;53.888;11.464;2022-09-06T00:25:32;15.80;97.60
612;DHT22;293;53.888;11.464;2022-09-06T00:28:00;15.80;97.40
612;DHT22;293;53.888;11.464;2022-09-06T00:30:29;15.80;97.40
612;DHT22;293;53.888;11.464;2022-09-06T00:32:56;15.80;97.20
612;DHT22;293;53.888;11.464;2022-09-06T00:35:24;15.80;97.00
612;DHT22;293;53.888;11.464;2022-09-06T00:37:54;15.80;96.80
612;DHT22;293;53.888;11.464;2022-09-06T00:40:21;15.80;96.70
612;DHT22;293;53.888;11.464;2022-09-06T00:42:49;15.80;96.50
612;DHT22;293;53.888;11.464;2022-09-06T00:45:17;15.80;96.30
612;DHT22;293;53.888;11.464;2022-09-06T00:47:44;15.70;96.20
612;DHT22;293;53.888;11.464;2022-09-06T00:50:13;15.70;96.30
612;DHT22;293;53.888;11.464;2022-09-06T00:52:42;15.60;96.40
612;DHT22;293;53.888;11.464;2022-09-06T00:55:10;15.60;96.00
612;DHT22;293;53.888;11.464;2022-09-06T00:57:37;15.70;95.60
612;DHT22;293;53.888;11.464;2022-09-06T01:00:07;15.60;95.60
612;DHT22;293;53.888;11.464;2022-09-06T01:02:35;15.70;95.30
612;DHT22;293;53.888;11.464;2022-09-06T01:05:02;15.70;95.20
612;DHT22;293;53.888;11.464;2022-09-06T01:07:39;15.70;95.20
612;DHT22;293;53.888;11.464;2022-09-06T01:13:14;15.70;95.00
612;DHT22;293;53.888;11.464;2022-09-06T01:15:51;15.70;94.90
612;DHT22;293;53.888;11.464;2022-09-06T01:18:31;15.70;95.00
612;DHT22;293;53.888;11.464;2022-09-06T01:21:08;15.60;95.00
612;DHT22;293;53.888;11.464;2022-09-06T01:27:00;15.60;95.10
612;DHT22;293;53.888;11.464;2022-09-06T01:29:38;15.60;95.20
612;DHT22;293;53.888;11.464;2022-09-06T01:32:12;15.50;95.20
612;DHT22;293;53.888;11.464;2022-09-06T01:34:44;15.50;95.20
612;DHT22;293;53.888;11.464;2022-09-06T01:37:14;15.50;95.10
612;DHT22;293;53.888;11.464;2022-09-06T01:39:44;15.50;95.20
612;DHT22;293;53.888;11.464;2022-09-06T01:42:13;15.40;95.10
612;DHT22;293;53.888;11.464;2022-09-06T01:44:44;15.40;95.10
612;DHT22;293;53.888;11.464;2022-09-06T01:47:21;15.40;95.10
612;DHT22;293;53.888;11.464;2022-09-06T01:49:58;15.30;95.00
612;DHT22;293;53.888;11.464;2022-09-06T01:52:32;15.30;95.10
612;DHT22;293;53.888;11.464;2022-09-06T01:55:10;15.30;95.10
612;DHT22;293;53.888;11.464;2022-09-06T01:57:54;15.30;95.10
612;DHT22;293;53.888;11.464;2022-09-06T02:00:23;15.30;95.20
612;DHT22;293;53.888;11.464;2022-09-06T02:02:59;15.20;95.20
612;DHT22;293;53.888;11.464;2022-09-06T02:05:31;15.20;95.20
612;DHT22;293;53.888;11.464;2022-09-06T02:08:04;15.20;95.30
612;DHT22;293;53.888;11.464;2022-09-06T02:10:36;15.20;95.20
612;DHT22;293;53.888;11.464;2022-09-06T02:13:06;15.20;95.20
612;DHT22;293;53.888;11.464;2022-09-06T02:15:38;15.10;95.20
612;DHT22;293;53.888;11.464;2022-09-06T02:18:11;15.10;95.10
612;DHT22;293;53.888;11.464;2022-09-06T02:20:41;15.10;95.10
612;DHT22;293;53.888;11.464;2022-09-06T02:23:14;15.10;95.00
612;DHT22;293;53.888;11.464;2022-09-06T02:25:46;15.10;94.90
612;DHT22;293;53.888;11.464;2022-09-06T02:28:15;15.10;94.90
612;DHT22;293;53.888;11.464;2022-09-06T02:30:46;15.10;94.90
612;DHT22;293;53.888;11.464;2022-09-06T02:33:17;15.00;94.90
612;DHT22;293;53.888;11.464;2022-09-06T02:35:46;15.00;94.80
612;DHT22;293;53.888;11.464;2022-09-06T02:38:14;15.00;94.90
612;DHT22;293;53.888;11.464;2022-09-06T02:40:41;15.00;94.80
612;DHT22;293;53.888;11.464;2022-09-06T02:43:08;14.90;94.80
612;DHT22;293;53.888;11.464;2022-09-06T02:45:35;15.00;94.70
612;DHT22;293;53.888;11.464;2022-09-06T02:48:04;15.00;94.60
612;DHT22;293;53.888;11.464;2022-09-06T02:50:30;15.00;94.50
612;DHT22;293;53.888;11.464;2022-09-06T02:53:05;15.00;94.40
612;DHT22;293;53.888;11.464;2022-09-06T02:55:34;14.90;94.30
612;DHT22;293;53.888;11.464;2022-09-06T02:58:01;15.00;94.30
612;DHT22;293;53.888;11.464;2022-09-06T03:00:29;14.90;94.30
612;DHT22;293;53.888;11.464;2022-09-06T03:02:56;14.90;94.30
612;DHT22;293;53.888;11.464;2022-09-06T03:05:26;14.90;94.30
612;DHT22;293;53.888;11.464;2022-09-06T03:07:54;14.90;94.20
612;DHT22;293;53.888;11.464;2022-09-06T03:10:21;14.90;94.20
612;DHT22;293;53.888;11.464;2022-09-06T03:12:48;14.80;94.10
612;DHT22;293;53.888;11.464;2022-09-06T03:15:15;14.80;94.10
612;DHT22;293;53.888;11.464;2022-09-06T03:17:43;14.90;94.00
612;DHT22;293;53.888;11.464;2022-09-06T03:20:11;14.80;94.00
612;DHT22;293;53.888;11.464;2022-09-06T03:22:40;14.80;94.00
612;DHT22;293;53.888;11.464;2022-09-06T03:25:08;14.80;94.00
612;DHT22;293;53.888;11.464;2022-09-06T03:27:35;14.70;94.00
612;DHT22;293;53.888;11.464;2022-09-06T03:30:03;14.70;94.00
612;DHT22;293;53.888;11.464;2022-09-06T03:32:30;14.70;94.00
612;DHT22;293;53.888;11.464;2022-09-06T03:34:57;14.70;94.00
612;DHT22;293;53.888;11.464;2022-09-06T03:37:23;14.60;94.00
612;DHT22;293;53.888;11.464;2022-09-06T03:39:52;14.50;94.10
612;DHT22;293;53.888;11.464;2022-09-06T03:42:19;14.50;94.10
612;DHT22;293;53.888;11.464;2022-09-06T03:44:46;14.50;94.20
612;DHT22;293;53.888;11.464;2022-09-06T03:47:13;14.50;94.20
612;DHT22;293;53.888;11.464;2022-09-06T03:49:40;14.40;94.20
612;DHT22;293;53.888;11.464;2022-09-06T03:52:06;14.40;94.20
612;DHT22;293;53.888;11.464;2022-09-06T03:54:33;14.40;94.30
612;DHT22;293;53.888;11.464;2022-09-06T03:57:02;14.40;94.20
612;DHT22;293;53.888;11.464;2022-09-06T03:59:29;14.40;94.20
612;DHT22;293;53.888;11.464;2022-09-06T04:01:55;14.40;94.30
612;DHT22;293;53.888;11.464;2022-09-06T04:04:23;14.30;94.20
612;DHT22;293;53.888;11.464;2022-09-06T04:06:49;14.30;94.30
612;DHT22;293;53.888;11.464;2022-09-06T04:09:16;14.30;94.40
612;DHT22;293;53.888;11.464;2022-09-06T04:11:43;14.20;94.50
612;DHT22;293;53.888;11.464;2022-09-06T04:14:11;14.20;94.50
612;DHT22;293;53.888;11.464;2022-09-06T04:16:38;14.20;94.60
612;DHT22;293;53.888;11.464;2022-09-06T04:19:05;14.20;94.70
612;DHT22;293;53.888;11.464;2022-09-06T04:21:31;14.20;94.80
612;DHT22;293;53.888;11.464;2022-09-06T04:23:58;14.20;94.70
612;DHT22;293;53.888;11.464;2022-09-06T04:26:25;14.20;94.80
612;DHT22;293;53.888;11.464;2022-09-06T04:28:52;14.20;94.70
612;DHT22;293;53.888;11.464;2022-09-06T04:31:20;14.10;94.80
612;DHT22;293;53.888;11.464;2022-09-06T04:33:47;14.00;95.00
612;DHT22;293;53.888;11.464;2022-09-06T04:36:13;14.10;95.10
612;DHT22;293;53.888;11.464;2022-09-06T04:38:42;14.10;95.10
612;DHT22;293;53.888;11.464;2022-09-06T04:41:10;14.10;95.30
612;DHT22;293;53.888;11.464;2022-09-06T04:43:37;14.10;95.20
612;DHT22;293;53.888;11.464;2022-09-06T04:46:05;14.10;95.30
612;DHT22;293;53.888;11.464;2022-09-06T04:48:36;14.20;95.20
612;DHT22;293;53.888;11.464;2022-09-06T04:51:02;14.20;95.10
612;DHT22;293;53.888;11.464;2022-09-06T04:53:29;14.20;95.10
612;DHT22;293;53.888;11.464;2022-09-06T04:55:56;14.30;95.10
612;DHT22;293;53.888;11.464;2022-09-06T04:58:24;14.30;95.10
612;DHT22;293;53.888;11.464;2022-09-06T05:00:50;14.40;94.90
612;DHT22;293;53.888;11.464;2022-09-06T05:03:17;14.40;94.80
612;DHT22;293;53.888;11.464;2022-09-06T05:05:45;14.50;94.70
612;DHT22;293;53.888;11.464;2022-09-06T05:08:12;14.50;94.50
612;DHT22;293;53.888;11.464;2022-09-06T05:10:39;14.60;94.30
612;DHT22;293;53.888;11.464;2022-09-06T05:13:06;14.60;94.50
612;DHT22;293;53.888;11.464;2022-09-06T05:15:32;14.70;94.30
612;DHT22;293;53.888;11.464;2022-09-06T05:18:03;14.80;94.10
612;DHT22;293;53.888;11.464;2022-09-06T05:20:31;14.90;94.10
612;DHT22;293;53.888;11.464;2022-09-06T05:22:59;15.00;93.90
612;DHT22;293;53.888;11.464;2022-09-06T05:25:26;15.30;93.50
612;DHT22;293;53.888;11.464;2022-09-06T05:27:53;15.40;93.00
612;DHT22;293;53.888;11.464;2022-09-06T05:30:20;15.40;92.90
612;DHT22;293;53.888;11.464;2022-09-06T05:32:47;15.50;92.90
612;DHT22;293;53.888;11.464;2022-09-06T05:35:14;15.60;92.50
612;DHT22;293;53.888;11.464;2022-09-06T05:37:41;15.70;92.40
612;DHT22;293;53.888;11.464;2022-09-06T05:40:10;15.60;92.30
612;DHT22;293;53.888;11.464;2022-09-06T05:42:36;15.70;92.40
612;DHT22;293;53.888;11.464;2022-09-06T05:45:06;15.80;92.20
612;DHT22;293;53.888;11.464;2022-09-06T05:47:33;15.70;92.20
612;DHT22;293;53.888;11.464;2022-09-06T05:50:00;15.70;92.10
612;DHT22;293;53.888;11.464;2022-09-06T05:52:27;15.70;92.10
612;DHT22;293;53.888;11.464;2022-09-06T05:54:53;15.70;92.00
612;DHT22;293;53.888;11.464;2022-09-06T05:57:21;15.70;91.90
612;DHT22;293;53.888;11.464;2022-09-06T05:59:48;15.70;91.90
612;DHT22;293;53.888;11.464;2022-09-06T06:02:16;15.60;91.90
612;DHT22;293;53.888;11.464;2022-09-06T06:04:43;15.60;92.10
612;DHT22;293;53.888;11.464;2022-09-06T06:07:10;15.60;92.20
612;DHT22;293;53.888;11.464;2022-09-06T06:09:37;15.60;92.20
612;DHT22;293;53.888;11.464;2022-09-06T06:12:04;15.70;92.10
612;DHT22;293;53.888;11.464;2022-09-06T06:14:32;16.20;92.10
612;DHT22;293;53.888;11.464;2022-09-06T06:16:59;16.60;91.50
612;DHT22;293;53.888;11.464;2022-09-06T06:19:26;16.90;90.60
612;DHT22;293;53.888;11.464;2022-09-06T06:21:54;16.90;90.30
612;DHT22;293;53.888;11.464;2022-09-06T06:24:22;16.90;90.40
612;DHT22;293;53.888;11.464;2022-09-06T06:26:49;16.80;90.30
612;DHT22;293;53.888;11.464;2022-09-06T06:29:16;16.80;90.20
612;DHT22;293;53.888;11.464;2022-09-06T06:31:45;16.80;90.10
612;DHT22;293;53.888;11.464;2022-09-06T06:34:12;16.70;90.00
612;DHT22;293;53.888;11.464;2022-09-06T06:36:38;16.70;90.10
612;DHT22;293;53.888;11.464;2022-09-06T06:39:06;16.60;90.50
612;DHT22;293;53.888;11.464;2022-09-06T06:41:33;16.60;90.40
612;DHT22;293;53.888;11.464;2022-09-06T06:44:02;16.50;90.30
612;DHT22;293;53.888;11.464;2022-09-06T06:46:30;16.60;90.20
612;DHT22;293;53.888;11.464;2022-09-06T06:48:59;16.50;90.30
612;DHT22;293;53.888;11.464;2022-09-06T06:51:30;16.40;90.40
612;DHT22;293;53.888;11.464;2022-09-06T06:53:57;16.40;90.40
612;DHT22;293;53.888;11.464;2022-09-06T06:56:29;16.40;90.20
612;DHT22;293;53.888;11.464;2022-09-06T06:58:58;16.50;90.30
612;DHT22;293;53.888;11.464;2022-09-06T07:01:27;16.60;90.20
612;DHT22;293;53.888;11.464;2022-09-06T07:03:55;16.60;90.20
612;DHT22;293;53.888;11.464;2022-09-06T07:06:24;16.80;90.40
612;DHT22;293;53.888;11.464;2022-09-06T07:08:56;16.90;90.10
612;DHT22;293;53.888;11.464;2022-09-06T07:11:24;17.00;89.40
612;DHT22;293;53.888;11.464;2022-09-06T07:13:54;17.00;89.60
612;DHT22;293;53.888;11.464;2022-09-06T07:16:23;17.10;89.20
612;DHT22;293;53.888;11.464;2022-09-06T07:18:51;17.20;88.70
612;DHT22;293;53.888;11.464;2022-09-06T07:21:19;17.20;88.40
612;DHT22;293;53.888;11.464;2022-09-06T07:23:52;17.20;88.70
612;DHT22;293;53.888;11.464;2022-09-06T07:26:21;17.20;88.40
612;DHT22;293;53.888;11.464;2022-09-06T07:28:50;17.20;88.30
612;DHT22;293;53.888;11.464;2022-09-06T07:31:17;17.30;87.90
612;DHT22;293;53.888;11.464;2022-09-06T07:33:44;17.30;87.20
612;DHT22;293;53.888;11.464;2022-09-06T07:36:11;17.40;87.80
612;DHT22;293;53.888;11.464;2022-09-06T07:38:38;17.40;87.20
612;DHT22;293;53.888;11.464;2022-09-06T07:41:08;17.50;87.40
612;DHT22;293;53.888;11.464;2022-09-06T07:43:35;17.60;86.40
612;DHT22;293;53.888;11.464;2022-09-06T07:46:04;17.70;86.20
612;DHT22;293;53.888;11.464;2022-09-06T07:48:32;17.80;86.20
612;DHT22;293;53.888;11.464;2022-09-06T07:51:04;18.00;85.80
612;DHT22;293;53.888;11.464;2022-09-06T07:53:32;18.00;85.40
612;DHT22;293;53.888;11.464;2022-09-06T07:55:59;18.20;85.30
612;DHT22;293;53.888;11.464;2022-09-06T07:58:29;18.40;84.80
612;DHT22;293;53.888;11.464;2022-09-06T08:01:17;18.60;83.60
612;DHT22;293;53.888;11.464;2022-09-06T08:03:46;18.60;82.80
612;DHT22;293;53.888;11.464;2022-09-06T08:06:13;18.70;83.50
612;DHT22;293;53.888;11.464;2022-09-06T08:08:39;18.90;82.80
612;DHT22;293;53.888;11.464;2022-09-06T08:11:06;19.00;82.40
612;DHT22;293;53.888;11.464;2022-09-06T08:13:35;19.00;82.10
612;DHT22;293;53.888;11.464;2022-09-06T08:16:04;19.10;81.10
612;DHT22;293;53.888;11.464;2022-09-06T08:18:31;19.10;80.40
612;DHT22;293;53.888;11.464;2022-09-06T08:21:05;19.20;80.40
612;DHT22;293;53.888;11.464;2022-09-06T08:23:32;19.30;80.30
612;DHT22;293;53.888;11.464;2022-09-06T08:26:00;19.30;80.70
612;DHT22;293;53.888;11.464;2022-09-06T08:28:26;19.40;80.60
612;DHT22;293;53.888;11.464;2022-09-06T08:30:55;19.40;79.50
612;DHT22;293;53.888;11.464;2022-09-06T08:33:30;19.60;79.30
612;DHT22;293;53.888;11.464;2022-09-06T08:35:57;19.60;79.00
612;DHT22;293;53.888;11.464;2022-09-06T08:38:25;19.80;79.40
612;DHT22;293;53.888;11.464;2022-09-06T08:40:53;20.00;78.90
612;DHT22;293;53.888;11.464;2022-09-06T08:43:21;20.10;77.80
612;DHT22;293;53.888;11.464;2022-09-06T08:45:53;20.10;76.20
612;DHT22;293;53.888;11.464;2022-09-06T08:48:23;20.10;76.20
612;DHT22;293;53.888;11.464;2022-09-06T08:50:58;20.00;77.10
612;DHT22;293;53.888;11.464;2022-09-06T08:53:33;20.10;77.10
612;DHT22;293;53.888;11.464;2022-09-06T08:56:08;20.20;76.00
612;DHT22;293;53.888;11.464;2022-09-06T08:58:49;20.20;77.20
612;DHT22;293;53.888;11.464;2022-09-06T09:01:23;20.30;75.60
612;DHT22;293;53.888;11.464;2022-09-06T09:03:56;20.30;75.00
612;DHT22;293;53.888;11.464;2022-09-06T09:06:25;20.40;74.40
612;DHT22;293;53.888;11.464;2022-09-06T09:09:00;20.40;74.20
612;DHT22;293;53.888;11.464;2022-09-06T09:11:28;20.40;74.20
612;DHT22;293;53.888;11.464;2022-09-06T09:14:02;20.40;73.40
612;DHT22;293;53.888;11.464;2022-09-06T09:16:30;20.30;73.30
612;DHT22;293;53.888;11.464;2022-09-06T09:19:00;20.30;73.70
612;DHT22;293;53.888;11.464;2022-09-06T09:21:30;20.30;73.70
612;DHT22;293;53.888;11.464;2022-09-06T09:24:03;20.20;73.10
612;DHT22;293;53.888;11.464;2022-09-06T09:26:34;20.20;73.30
612;DHT22;293;53.888;11.464;2022-09-06T09:29:06;20.10;73.50
612;DHT22;293;53.888;11.464;2022-09-06T09:31:35;20.10;72.40
612;DHT22;293;53.888;11.464;2022-09-06T09:34:04;20.00;72.90
612;DHT22;293;53.888;11.464;2022-09-06T09:36:35;19.90;73.90
612;DHT22;293;53.888;11.464;2022-09-06T09:39:08;19.90;73.70
612;DHT22;293;53.888;11.464;2022-09-06T09:41:37;19.90;73.90
612;DHT22;293;53.888;11.464;2022-09-06T09:44:06;19.90;74.00
612;DHT22;293;53.888;11.464;2022-09-06T09:46:36;20.00;74.50
612;DHT22;293;53.888;11.464;2022-09-06T09:49:10;20.00;75.10
612;DHT22;293;53.888;11.464;2022-09-06T09:51:39;20.00;73.30
612;DHT22;293;53.888;11.464;2022-09-06T09:54:08;20.10;73.30
612;DHT22;293;53.888;11.464;2022-09-06T09:56:43;20.10;72.30
612;DHT22;293;53.888;11.464;2022-09-06T09:59:21;20.10;72.60
612;DHT22;293;53.888;11.464;2022-09-06T10:01:48;20.20;72.60
612;DHT22;293;53.888;11.464;2022-09-06T10:04:29;20.20;72.70
612;DHT22;293;53.888;11.464;2022-09-06T10:07:10;20.20;72.70
612;DHT22;293;53.888;11.464;2022-09-06T10:09:39;20.20;72.70
612;DHT22;293;53.888;11.464;2022-09-06T10:12:06;20.10;72.60
612;DHT22;293;53.888;11.464;2022-09-06T10:14:39;20.20;72.10
612;DHT22;293;53.888;11.464;2022-09-06T10:17:07;20.20;72.60
612;DHT22;293;53.888;11.464;2022-09-06T10:19:40;20.20;72.50
612;DHT22;293;53.888;11.464;2022-09-06T10:22:21;20.20;72.90
612;DHT22;293;53.888;11.464;2022-09-06T10:28:18;20.40;72.50
612;DHT22;293;53.888;11.464;2022-09-06T10:30:57;20.40;72.30
612;DHT22;293;53.888;11.464;2022-09-06T10:33:31;20.60;73.40
612;DHT22;293;53.888;11.464;2022-09-06T10:36:02;20.70;72.90
612;DHT22;293;53.888;11.464;2022-09-06T10:38:40;20.90;72.40
612;DHT22;293;53.888;11.464;2022-09-06T10:41:24;21.00;71.70
612;DHT22;293;53.888;11.464;2022-09-06T10:44:03;21.00;70.90
612;DHT22;293;53.888;11.464;2022-09-06T10:46:33;21.10;70.90
612;DHT22;293;53.888;11.464;2022-09-06T10:49:00;21.10;71.20
612;DHT22;293;53.888;11.464;2022-09-06T10:51:34;21.10;71.30
612;DHT22;293;53.888;11.464;2022-09-06T10:54:05;21.10;70.50
612;DHT22;293;53.888;11.464;2022-09-06T10:56:38;21.10;70.50
612;DHT22;293;53.888;11.464;2022-09-06T10:59:11;21.10;70.70
612;DHT22;293;53.888;11.464;2022-09-06T11:01:43;21.00;70.60
612;DHT22;293;53.888;11.464;2022-09-06T11:04:17;21.00;71.00
612;DHT22;293;53.888;11.464;2022-09-06T11:06:51;21.10;71.10
612;DHT22;293;53.888;11.464;2022-09-06T11:09:23;21.10;70.60
612;DHT22;293;53.888;11.464;2022-09-06T11:12:02;21.10;70.70
612;DHT22;293;53.888;11.464;2022-09-06T11:14:32;21.10;70.80
612;DHT22;293;53.888;11.464;2022-09-06T11:17:01;21.20;71.20
612;DHT22;293;53.888;11.464;2022-09-06T11:19:35;21.30;70.80
612;DHT22;293;53.888;11.464;2022-09-06T11:22:27;21.30;70.30
612;DHT22;293;53.888;11.464;2022-09-06T11:28:02;21.40;71.00
612;DHT22;293;53.888;11.464;2022-09-06T11:30:33;21.50;70.80
612;DHT22;293;53.888;11.464;2022-09-06T11:33:08;21.60;70.20
612;DHT22;293;53.888;11.464;2022-09-06T11:35:38;21.50;69.50
612;DHT22;293;53.888;11.464;2022-09-06T11:38:19;21.50;69.50
612;DHT22;293;53.888;11.464;2022-09-06T11:40:48;21.60;70.60
612;DHT22;293;53.888;11.464;2022-09-06T11:43:42;21.70;71.10
612;DHT22;293;53.888;11.464;2022-09-06T11:46:10;21.80;70.40
612;DHT22;293;53.888;11.464;2022-09-06T11:49:04;22.00;69.40
612;DHT22;293;53.888;11.464;2022-09-06T11:51:34;22.10;70.40
612;DHT22;293;53.888;11.464;2022-09-06T11:54:20;22.30;70.50
612;DHT22;293;53.888;11.464;2022-09-06T11:56:56;22.10;69.30
612;DHT22;293;53.888;11.464;2022-09-06T11:59:34;22.10;69.70
612;DHT22;293;53.888;11.464;2022-09-06T12:02:03;22.30;69.40
612;DHT22;293;53.888;11.464;2022-09-06T12:05:12;22.40;69.70
612;DHT22;293;53.888;11.464;2022-09-06T12:08:14;22.60;69.30
612;DHT22;293;53.888;11.464;2022-09-06T12:10:59;22.50;68.40
612;DHT22;293;53.888;11.464;2022-09-06T12:13:54;22.50;69.30
612;DHT22;293;53.888;11.464;2022-09-06T12:16:22;22.70;69.60
612;DHT22;293;53.888;11.464;2022-09-06T12:18:57;22.80;69.60
612;DHT22;293;53.888;11.464;2022-09-06T12:21:39;22.90;67.90
612;DHT22;293;53.888;11.464;2022-09-06T12:24:07;22.70;67.10
612;DHT22;293;53.888;11.464;2022-09-06T12:26:46;22.50;67.50
612;DHT22;293;53.888;11.464;2022-09-06T12:29:14;22.40;67.70
612;DHT22;293;53.888;11.464;2022-09-06T12:31:42;22.20;68.20
612;DHT22;293;53.888;11.464;2022-09-06T12:34:16;22.10;68.00
612;DHT22;293;53.888;11.464;2022-09-06T12:36:54;22.00;68.60
612;DHT22;293;53.888;11.464;2022-09-06T12:39:22;22.00;69.20
612;DHT22;293;53.888;11.464;2022-09-06T12:41:51;21.90;69.30
612;DHT22;293;53.888;11.464;2022-09-06T12:44:26;21.90;69.20
612;DHT22;293;53.888;11.464;2022-09-06T12:46:58;21.90;70.50
612;DHT22;293;53.888;11.464;2022-09-06T12:49:27;21.80;69.50
612;DHT22;293;53.888;11.464;2022-09-06T12:52:07;21.90;70.70
612;DHT22;293;53.888;11.464;2022-09-06T12:54:41;21.90;69.40
612;DHT22;293;53.888;11.464;2022-09-06T12:57:13;21.90;69.60
612;DHT22;293;53.888;11.464;2022-09-06T12:59:53;21.90;70.50
612;DHT22;293;53.888;11.464;2022-09-06T13:02:24;22.00;69.90
612;DHT22;293;53.888;11.464;2022-09-06T13:04:57;22.00;69.70
612;DHT22;293;53.888;11.464;2022-09-06T13:07:27;22.00;70.40
612;DHT22;293;53.888;11.464;2022-09-06T13:09:56;22.10;69.40
612;DHT22;293;53.888;11.464;2022-09-06T13:12:25;22.10;69.10
612;DHT22;293;53.888;11.464;2022-09-06T13:14:54;22.10;69.30
612;DHT22;293;53.888;11.464;2022-09-06T13:17:23;22.10;69.90
612;DHT22;293;53.888;11.464;2022-09-06T13:19:50;22.10;69.00
612;DHT22;293;53.888;11.464;2022-09-06T13:22:37;22.00;68.60
612;DHT22;293;53.888;11.464;2022-09-06T13:25:05;22.00;69.00
612;DHT22;293;53.888;11.464;2022-09-06T13:27:42;22.00;69.10
612;DHT22;293;53.888;11.464;2022-09-06T13:30:33;22.00;69.10
612;DHT22;293;53.888;11.464;2022-09-06T13:33:01;22.00;68.90
612;DHT22;293;53.888;11.464;2022-09-06T13:35:30;22.00;68.80
612;DHT22;293;53.888;11.464;2022-09-06T13:38:30;22.00;68.60
612;DHT22;293;53.888;11.464;2022-09-06T13:40:57;22.10;69.20
612;DHT22;293;53.888;11.464;2022-09-06T13:43:26;22.10;68.50
612;DHT22;293;53.888;11.464;2022-09-06T13:46:04;22.10;68.80
612;DHT22;293;53.888;11.464;2022-09-06T13:48:32;22.20;67.70
612;DHT22;293;53.888;11.464;2022-09-06T13:50:59;22.20;67.10
612;DHT22;293;53.888;11.464;2022-09-06T13:53:26;22.20;67.30
612;DHT22;293;53.888;11.464;2022-09-06T13:55:54;22.10;67.50
612;DHT22;293;53.888;11.464;2022-09-06T13:58:21;22.20;67.10
612;DHT22;293;53.888;11.464;2022-09-06T14:00:48;22.20;67.40
612;DHT22;293;53.888;11.464;2022-09-06T14:03:20;22.20;67.70
612;DHT22;293;53.888;11.464;2022-09-06T14:05:48;22.10;67.10
612;DHT22;293;53.888;11.464;2022-09-06T14:08:15;22.10;67.70
612;DHT22;293;53.888;11.464;2022-09-06T14:10:42;22.10;68.10
612;DHT22;293;53.888;11.464;2022-09-06T14:13:12;22.10;68.30
612;DHT22;293;53.888;11.464;2022-09-06T14:15:38;22.20;68.20
612;DHT22;293;53.888;11.464;2022-09-06T14:18:06;22.20;68.30
612;DHT22;293;53.888;11.464;2022-09-06T14:20:32;22.20;69.10
612;DHT22;293;53.888;11.464;2022-09-06T14:22:59;22.30;69.20
612;DHT22;293;53.888;11.464;2022-09-06T14:25:26;22.30;68.20
612;DHT22;293;53.888;11.464;2022-09-06T14:27:54;22.40;67.60
612;DHT22;293;53.888;11.464;2022-09-06T14:30:22;22.30;67.80
612;DHT22;293;53.888;11.464;2022-09-06T14:32:49;22.30;68.40
612;DHT22;293;53.888;11.464;2022-09-06T14:35:15;22.30;68.80
612;DHT22;293;53.888;11.464;2022-09-06T14:37:42;22.30;68.60
612;DHT22;293;53.888;11.464;2022-09-06T14:40:09;22.30;68.90
612;DHT22;293;53.888;11.464;2022-09-06T14:42:36;22.20;68.50
612;DHT22;293;53.888;11.464;2022-09-06T14:45:04;22.20;68.30
612;DHT22;293;53.888;11.464;2022-09-06T14:47:32;22.30;68.70
612;DHT22;293;53.888;11.464;2022-09-06T14:49:59;22.30;69.20
612;DHT22;293;53.888;11.464;2022-09-06T14:52:27;22.30;68.00
612;DHT22;293;53.888;11.464;2022-09-06T14:54:53;22.30;68.60
612;DHT22;293;53.888;11.464;2022-09-06T14:57:20;22.30;67.90
612;DHT22;293;53.888;11.464;2022-09-06T14:59:47;22.20;69.10
612;DHT22;293;53.888;11.464;2022-09-06T15:02:14;22.20;69.30
612;DHT22;293;53.888;11.464;2022-09-06T15:04:42;22.30;68.30
612;DHT22;293;53.888;11.464;2022-09-06T15:07:10;22.20;68.90
612;DHT22;293;53.888;11.464;2022-09-06T15:09:37;22.20;68.00
612;DHT22;293;53.888;11.464;2022-09-06T15:12:04;22.20;67.90
612;DHT22;293;53.888;11.464;2022-09-06T15:14:31;22.20;68.00
612;DHT22;293;53.888;11.464;2022-09-06T15:16:59;22.20;68.60
612;DHT22;293;53.888;11.464;2022-09-06T15:19:29;22.20;68.00
612;DHT22;293;53.888;11.464;2022-09-06T15:21:58;22.20;68.20
612;DHT22;293;53.888;11.464;2022-09-06T15:24:26;22.10;68.40
612;DHT22;293;53.888;11.464;2022-09-06T15:26:53;22.10;68.60
612;DHT22;293;53.888;11.464;2022-09-06T15:29:20;22.00;68.40
612;DHT22;293;53.888;11.464;2022-09-06T15:31:48;22.10;68.90
612;DHT22;293;53.888;11.464;2022-09-06T15:34:16;22.00;68.20
612;DHT22;293;53.888;11.464;2022-09-06T15:36:43;21.80;68.00
612;DHT22;293;53.888;11.464;2022-09-06T15:39:11;21.80;68.40
612;DHT22;293;53.888;11.464;2022-09-06T15:41:38;21.80;68.90
612;DHT22;293;53.888;11.464;2022-09-06T15:44:07;21.70;68.50
612;DHT22;293;53.888;11.464;2022-09-06T15:46:41;21.60;70.20
612;DHT22;293;53.888;11.464;2022-09-06T15:49:11;21.60;69.50
612;DHT22;293;53.888;11.464;2022-09-06T15:51:39;21.50;69.80
612;DHT22;293;53.888;11.464;2022-09-06T15:54:06;21.40;70.60
612;DHT22;293;53.888;11.464;2022-09-06T15:56:35;21.50;69.90
612;DHT22;293;53.888;11.464;2022-09-06T15:59:01;21.40;69.40
612;DHT22;293;53.888;11.464;2022-09-06T16:01:28;21.40;70.00
612;DHT22;293;53.888;11.464;2022-09-06T16:03:56;21.30;70.20
612;DHT22;293;53.888;11.464;2022-09-06T16:06:28;21.30;70.50
612;DHT22;293;53.888;11.464;2022-09-06T16:08:56;21.30;70.60
612;DHT22;293;53.888;11.464;2022-09-06T16:11:24;21.30;70.50
612;DHT22;293;53.888;11.464;2022-09-06T16:13:52;21.20;70.40
612;DHT22;293;53.888;11.464;2022-09-06T16:16:19;21.20;70.80
612;DHT22;293;53.888;11.464;2022-09-06T16:18:47;21.20;70.90
612;DHT22;293;53.888;11.464;2022-09-06T16:21:15;21.20;71.20
612;DHT22;293;53.888;11.464;2022-09-06T16:23:49;21.10;70.80
612;DHT22;293;53.888;11.464;2022-09-06T16:26:16;21.10;71.10
612;DHT22;293;53.888;11.464;2022-09-06T16:28:43;21.10;70.80
612;DHT22;293;53.888;11.464;2022-09-06T16:31:12;21.00;71.30
612;DHT22;293;53.888;11.464;2022-09-06T16:33:39;21.00;71.20
612;DHT22;293;53.888;11.464;2022-09-06T16:36:08;20.90;71.60
612;DHT22;293;53.888;11.464;2022-09-06T16:38:37;20.90;71.40
612;DHT22;293;53.888;11.464;2022-09-06T16:41:09;20.90;71.50
612;DHT22;293;53.888;11.464;2022-09-06T16:43:36;20.80;71.90
612;DHT22;293;53.888;11.464;2022-09-06T16:46:05;20.70;71.50
612;DHT22;293;53.888;11.464;2022-09-06T16:48:34;20.70;71.60